createdAt,value
2017-03-02T00:00:07.336Z,99.99
2017-03-02T00:01:07.226Z,99.99
2017-03-02T00:02:06.816Z,99.99
2017-03-02T00:03:06.792Z,99.99
2017-03-02T00:04:07.145Z,99.99
2017-03-02T00:05:06.745Z,99.99
2017-03-02T00:06:06.713Z,99.99
2017-03-02T00:07:06.721Z,99.99
2017-03-02T00:08:07.062Z,99.99
2017-03-02T00:09:06.649Z,99.99
2017-03-02T00:10:07.004Z,99.99
2017-03-02T00:11:07.011Z,99.99
2017-03-02T00:12:06.979Z,99.99
2017-03-02T00:13:06.559Z,99.99
2017-03-02T00:14:06.930Z,99.99
2017-03-02T00:15:06.908Z,99.99
2017-03-02T00:16:06.881Z,99.99
2017-03-02T00:17:06.859Z,99.99
2017-03-02T00:18:06.838Z,99.99
2017-03-02T00:19:06.805Z,99.99
2017-03-02T00:20:06.797Z,99.99
2017-03-02T00:21:06.765Z,99.99
2017-03-02T00:22:06.746Z,99.99
2017-03-02T00:23:06.723Z,99.99
2017-03-02T00:24:06.702Z,99.99
2017-03-02T00:25:06.682Z,99.99
2017-03-02T00:26:06.261Z,99.99
2017-03-02T00:27:06.230Z,99.99
2017-03-02T00:28:06.213Z,99.99
2017-03-02T00:29:06.582Z,99.99
2017-03-02T00:30:06.552Z,99.99
2017-03-02T00:31:06.533Z,99.99
2017-03-02T00:32:06.518Z,99.99
2017-03-02T00:33:06.486Z,99.99
2017-03-02T00:34:06.454Z,99.99
2017-03-02T00:35:06.062Z,99.99
2017-03-02T00:36:06.032Z,99.99
2017-03-02T00:37:06.008Z,99.99
2017-03-02T00:38:05.978Z,99.99
2017-03-02T00:39:06.476Z,99.99
2017-03-02T00:40:05.929Z,99.99
2017-03-02T00:41:06.313Z,99.99
2017-03-02T00:42:06.284Z,99.99
2017-03-02T00:43:06.258Z,99.99
2017-03-02T00:44:06.243Z,99.99
2017-03-02T00:45:05.875Z,99.99
2017-03-02T00:46:05.803Z,99.99
2017-03-02T00:47:05.833Z,99.99
2017-03-02T00:48:06.149Z,99.99
2017-03-02T00:49:06.119Z,99.99
2017-03-02T00:50:05.708Z,99.99
2017-03-02T00:51:06.062Z,99.99
2017-03-02T00:52:05.668Z,99.99
2017-03-02T00:53:06.036Z,99.99
2017-03-02T00:54:06.026Z,99.99
2017-03-02T00:55:05.616Z,99.99
2017-03-02T00:56:05.954Z,99.99
2017-03-02T00:57:05.551Z,99.99
2017-03-02T00:58:05.914Z,99.99
2017-03-02T00:59:05.497Z,99.99
2017-03-02T01:00:05.871Z,99.99
2017-03-02T01:01:05.841Z,99.99
2017-03-02T01:02:05.823Z,99.99
2017-03-02T01:03:05.802Z,99.99
2017-03-02T01:04:05.389Z,99.99
2017-03-02T01:05:05.360Z,99.99
2017-03-02T01:06:05.733Z,99.99
2017-03-02T01:07:05.710Z,99.99
2017-03-02T01:08:05.698Z,99.99
2017-03-02T01:09:05.667Z,99.99
2017-03-02T01:10:05.246Z,99.99
2017-03-02T01:11:05.242Z,99.99
2017-03-02T01:12:05.594Z,99.99
2017-03-02T01:13:05.576Z,99.99
2017-03-02T01:14:05.166Z,99.99
2017-03-02T01:15:05.526Z,99.99
2017-03-02T01:16:05.514Z,99.99
2017-03-02T01:17:05.205Z,99.99
2017-03-02T01:18:05.452Z,99.99
2017-03-02T01:19:05.054Z,99.99
2017-03-02T01:20:05.023Z,99.99
2017-03-02T01:21:05.402Z,99.99
2017-03-02T01:22:04.974Z,99.99
2017-03-02T01:23:05.344Z,99.99
2017-03-02T01:24:05.322Z,99.99
2017-03-02T01:25:04.926Z,99.99
2017-03-02T01:26:04.894Z,99.99
2017-03-02T01:27:05.249Z,99.99
2017-03-02T01:28:04.851Z,99.99
2017-03-02T01:29:04.828Z,99.99
2017-03-02T01:30:05.180Z,99.99
2017-03-02T01:31:05.155Z,99.99
2017-03-02T01:32:05.146Z,99.99
2017-03-02T01:33:04.740Z,99.99
2017-03-02T01:34:05.107Z,99.99
2017-03-02T01:35:04.688Z,99.99
2017-03-02T01:36:05.075Z,99.99
2017-03-02T01:37:05.027Z,99.99
2017-03-02T01:38:04.614Z,99.99
2017-03-02T01:39:04.593Z,99.99
2017-03-02T01:40:04.563Z,99.99
2017-03-02T01:41:04.934Z,99.99
2017-03-02T01:42:04.924Z,99.99
2017-03-02T01:43:04.899Z,99.99
2017-03-02T01:44:04.862Z,99.99
2017-03-02T01:45:04.460Z,99.99
2017-03-02T01:46:04.835Z,99.99
2017-03-02T01:47:04.799Z,99.99
2017-03-02T01:48:04.780Z,99.99
2017-03-02T01:49:04.767Z,99.99
2017-03-02T01:50:04.727Z,99.99
2017-03-02T01:51:04.337Z,99.99
2017-03-02T01:52:04.307Z,99.99
2017-03-02T01:53:04.668Z,99.99
2017-03-02T01:54:04.696Z,99.99
2017-03-02T01:55:04.225Z,99.99
2017-03-02T01:56:04.625Z,99.99
2017-03-02T01:57:04.198Z,99.99
2017-03-02T01:58:04.554Z,99.99
2017-03-02T01:59:04.153Z,99.99
2017-03-02T02:00:04.492Z,99.99
2017-03-02T02:01:04.491Z,99.99
2017-03-02T02:02:04.512Z,99.99
2017-03-02T02:03:04.432Z,99.99
2017-03-02T02:04:04.042Z,99.99
2017-03-02T02:05:04.423Z,99.99
2017-03-02T02:06:04.420Z,99.99
2017-03-02T02:07:04.339Z,99.99
2017-03-02T02:08:04.358Z,99.99
2017-03-02T02:09:04.298Z,99.99
2017-03-02T02:10:04.400Z,99.99
2017-03-02T02:11:03.868Z,99.99
2017-03-02T02:12:03.856Z,99.99
2017-03-02T02:13:04.217Z,99.99
2017-03-02T02:14:04.243Z,99.99
2017-03-02T02:15:04.163Z,99.99
2017-03-02T02:16:04.257Z,99.99
2017-03-02T02:17:04.126Z,99.99
2017-03-02T02:18:04.175Z,99.99
2017-03-02T02:19:03.694Z,99.99
2017-03-02T02:20:03.756Z,99.99
2017-03-02T02:21:03.653Z,99.99
2017-03-02T02:22:04.013Z,99.99
2017-03-02T02:23:03.606Z,99.99
2017-03-02T02:24:04.000Z,99.99
2017-03-02T02:25:03.952Z,99.99
2017-03-02T02:26:03.993Z,99.99
2017-03-02T02:27:03.950Z,99.99
2017-03-02T02:28:03.489Z,99.99
2017-03-02T02:29:03.871Z,99.99
2017-03-02T02:30:03.588Z,99.99
2017-03-02T02:31:03.824Z,99.99
2017-03-02T02:32:03.403Z,99.99
2017-03-02T02:33:03.759Z,99.99
2017-03-02T02:34:03.837Z,99.99
2017-03-02T02:35:03.336Z,99.99
2017-03-02T02:36:03.701Z,99.99
2017-03-02T02:37:03.685Z,99.99
2017-03-02T02:38:03.364Z,99.99
2017-03-02T02:39:03.678Z,99.99
2017-03-02T02:40:03.670Z,99.99
2017-03-02T02:41:03.193Z,99.99
2017-03-02T02:42:03.172Z,99.99
2017-03-02T02:43:03.535Z,99.99
2017-03-02T02:44:03.519Z,99.99
2017-03-02T02:45:03.518Z,99.99
2017-03-02T02:46:03.070Z,99.99
2017-03-02T02:47:03.470Z,99.99
2017-03-02T02:48:03.423Z,99.99
2017-03-02T02:49:03.009Z,99.99
2017-03-02T02:50:03.378Z,99.99
2017-03-02T02:51:03.351Z,99.99
2017-03-02T02:52:03.339Z,99.99
2017-03-02T02:53:03.318Z,99.99
2017-03-02T02:54:03.330Z,99.99
2017-03-02T02:55:03.272Z,99.99
2017-03-02T02:56:02.859Z,99.99
2017-03-02T02:57:03.304Z,99.99
2017-03-02T02:58:03.197Z,99.99
2017-03-02T02:59:03.178Z,99.99
2017-03-02T03:00:02.754Z,99.99
2017-03-02T03:01:03.142Z,99.99
2017-03-02T03:02:03.112Z,99.99
2017-03-02T03:03:03.129Z,99.99
2017-03-02T03:04:03.072Z,99.99
2017-03-02T03:05:03.040Z,99.99
2017-03-02T03:06:02.634Z,99.99
2017-03-02T03:07:03.011Z,99.99
2017-03-02T03:08:02.976Z,99.99
2017-03-02T03:09:02.959Z,99.99
2017-03-02T03:10:02.929Z,99.99
2017-03-02T03:11:02.917Z,99.99
2017-03-02T03:12:02.878Z,99.99
2017-03-02T03:13:02.465Z,99.99
2017-03-02T03:14:02.839Z,99.99
2017-03-02T03:15:02.430Z,99.99
2017-03-02T03:16:02.786Z,99.99
2017-03-02T03:17:02.398Z,99.99
2017-03-02T03:18:02.744Z,99.99
2017-03-02T03:19:02.741Z,99.99
2017-03-02T03:20:02.314Z,99.99
2017-03-02T03:21:02.294Z,99.99
2017-03-02T03:22:02.265Z,99.99
2017-03-02T03:23:02.244Z,99.99
2017-03-02T03:24:02.612Z,99.99
2017-03-02T03:25:02.582Z,99.99
2017-03-02T03:26:02.570Z,99.99
2017-03-02T03:27:02.160Z,99.99
2017-03-02T03:28:02.530Z,99.99
2017-03-02T03:29:02.511Z,99.99
2017-03-02T03:30:02.089Z,99.99
2017-03-02T03:31:02.459Z,99.99
2017-03-02T03:32:02.428Z,99.99
2017-03-02T03:33:02.417Z,99.99
2017-03-02T03:34:02.397Z,99.99
2017-03-02T03:35:02.375Z,99.99
2017-03-02T03:36:01.985Z,99.99
2017-03-02T03:37:01.946Z,99.99
2017-03-02T03:38:01.915Z,99.99
2017-03-02T03:39:01.903Z,99.99
2017-03-02T03:40:01.873Z,99.99
2017-03-02T03:41:02.234Z,99.99
2017-03-02T03:42:02.204Z,99.99
2017-03-02T03:43:02.192Z,99.99
2017-03-02T03:44:01.911Z,99.99
2017-03-02T03:45:02.140Z,99.99
2017-03-02T03:46:02.110Z,99.99
2017-03-02T03:47:02.106Z,99.99
2017-03-02T03:48:02.080Z,99.99
2017-03-02T03:49:02.060Z,99.99
2017-03-02T03:50:01.649Z,99.99
2017-03-02T03:51:02.015Z,99.99
2017-03-02T03:52:01.968Z,99.99
2017-03-02T03:53:01.967Z,99.99
2017-03-02T03:54:01.945Z,99.99
2017-03-02T03:55:01.916Z,99.99
2017-03-02T03:56:01.501Z,99.99
2017-03-02T03:57:01.474Z,99.99
2017-03-02T03:58:01.857Z,99.99
2017-03-02T03:59:01.444Z,99.99
2017-03-02T04:00:01.796Z,99.99
2017-03-02T04:01:01.773Z,99.99
2017-03-02T04:02:01.761Z,99.99
2017-03-02T04:03:01.349Z,99.99
2017-03-02T04:04:01.702Z,99.99
2017-03-02T04:05:01.700Z,99.99
2017-03-02T04:06:01.660Z,99.99
2017-03-02T04:07:01.649Z,99.99
2017-03-02T04:08:01.618Z,99.99
2017-03-02T04:09:01.219Z,99.99
2017-03-02T04:10:01.588Z,99.99
2017-03-02T04:11:01.558Z,99.99
2017-03-02T04:12:01.150Z,99.99
2017-03-02T04:13:01.493Z,99.99
2017-03-02T04:14:01.479Z,99.99
2017-03-02T04:15:01.459Z,99.99
2017-03-02T04:16:01.445Z,99.99
2017-03-02T04:17:01.404Z,99.99
2017-03-02T04:18:01.004Z,99.99
2017-03-02T04:19:00.985Z,99.99
2017-03-02T04:20:00.946Z,99.99
2017-03-02T04:21:01.321Z,99.99
2017-03-02T04:22:00.908Z,99.99
2017-03-02T04:23:00.871Z,99.99
2017-03-02T04:24:00.859Z,99.99
2017-03-02T04:25:00.830Z,99.99
2017-03-02T04:26:01.198Z,99.99
2017-03-02T04:27:00.790Z,99.99
2017-03-02T04:28:00.768Z,99.99
2017-03-02T04:29:01.128Z,99.99
2017-03-02T04:30:01.100Z,99.99
2017-03-02T04:31:00.694Z,99.99
2017-03-02T04:32:01.067Z,99.99
2017-03-02T04:33:00.652Z,99.99
2017-03-02T04:34:01.015Z,99.99
2017-03-02T04:35:00.994Z,99.99
2017-03-02T04:36:00.573Z,99.99
2017-03-02T04:37:00.945Z,99.99
2017-03-02T04:38:00.924Z,99.99
2017-03-02T04:39:00.891Z,99.99
2017-03-02T04:40:00.891Z,99.99
2017-03-02T04:41:00.457Z,99.99
2017-03-02T04:42:00.431Z,99.99
2017-03-02T04:43:00.810Z,99.99
2017-03-02T04:44:00.784Z,99.99
2017-03-02T04:45:01.168Z,99.99
2017-03-02T04:46:00.347Z,99.99
2017-03-02T04:47:00.328Z,99.99
2017-03-02T04:48:00.303Z,99.99
2017-03-02T04:49:00.656Z,99.99
2017-03-02T04:50:00.646Z,99.99
2017-03-02T04:51:00.613Z,99.99
2017-03-02T04:52:00.206Z,99.99
2017-03-02T04:53:00.196Z,99.99
2017-03-02T04:54:00.543Z,99.99
2017-03-02T04:55:00.538Z,99.99
2017-03-02T04:56:00.502Z,99.99
2017-03-02T04:57:00.492Z,99.99
2017-03-02T04:58:00.462Z,99.99
2017-03-02T04:59:00.451Z,99.99
2017-03-02T05:00:00.422Z,99.99
2017-03-02T05:01:00.401Z,99.99
2017-03-02T05:01:59.977Z,99.99
2017-03-02T05:02:59.964Z,99.99
2017-03-02T05:04:00.318Z,99.99
2017-03-02T05:04:59.910Z,99.99
2017-03-02T05:06:00.283Z,99.99
2017-03-02T05:06:59.856Z,99.99
2017-03-02T05:08:00.227Z,99.99
2017-03-02T05:09:00.221Z,99.99
2017-03-02T05:09:59.797Z,99.99
2017-03-02T05:10:59.825Z,99.99
2017-03-02T05:12:00.145Z,99.99
2017-03-02T05:12:59.725Z,99.99
2017-03-02T05:14:00.096Z,99.99
2017-03-02T05:15:00.064Z,99.99
2017-03-02T05:16:00.096Z,99.99
2017-03-02T05:17:00.176Z,99.99
2017-03-02T05:17:59.993Z,99.99
2017-03-02T05:18:59.634Z,99.99
2017-03-02T05:19:59.550Z,99.99
2017-03-02T05:20:59.537Z,99.99
2017-03-02T05:21:59.911Z,99.99
2017-03-02T05:22:59.630Z,99.99
2017-03-02T05:23:59.478Z,99.99
2017-03-02T05:24:59.538Z,99.99
2017-03-02T05:25:59.807Z,99.99
2017-03-02T05:26:59.449Z,99.99
2017-03-02T05:27:59.766Z,99.99
2017-03-02T05:28:59.744Z,99.99
2017-03-02T05:29:59.328Z,99.99
2017-03-02T05:30:59.708Z,99.99
2017-03-02T05:31:59.658Z,99.99
2017-03-02T05:32:59.330Z,99.99
2017-03-02T05:33:59.633Z,99.99
2017-03-02T05:34:59.600Z,99.99
2017-03-02T05:35:59.579Z,99.99
2017-03-02T05:36:59.552Z,99.99
2017-03-02T05:37:59.521Z,99.99
2017-03-02T05:38:59.501Z,99.99
2017-03-02T05:39:59.479Z,99.99
2017-03-02T05:40:59.077Z,99.99
2017-03-02T05:41:59.063Z,99.99
2017-03-02T05:42:59.419Z,99.99
2017-03-02T05:43:59.407Z,99.99
2017-03-02T05:44:58.976Z,99.99
2017-03-02T05:45:58.946Z,99.99
2017-03-02T05:46:59.316Z,99.99
2017-03-02T05:47:58.909Z,99.99
2017-03-02T05:48:59.273Z,99.99
2017-03-02T05:49:59.239Z,99.99
2017-03-02T05:50:58.844Z,99.99
2017-03-02T05:51:59.216Z,99.99
2017-03-02T05:52:59.174Z,99.99
2017-03-02T05:53:58.768Z,99.99
2017-03-02T05:54:59.135Z,99.99
2017-03-02T05:55:59.113Z,99.99
2017-03-02T05:56:59.093Z,99.99
2017-03-02T05:57:59.085Z,99.99
2017-03-02T05:58:59.044Z,99.99
2017-03-02T05:59:59.020Z,99.99
2017-03-02T06:00:59.010Z,99.99
2017-03-02T06:01:58.614Z,99.99
2017-03-02T06:02:58.939Z,99.99
2017-03-02T06:03:58.529Z,99.99
2017-03-02T06:04:58.512Z,99.99
2017-03-02T06:05:58.477Z,99.99
2017-03-02T06:06:58.838Z,99.99
2017-03-02T06:07:58.432Z,99.99
2017-03-02T06:08:58.798Z,99.99
2017-03-02T06:09:58.780Z,99.99
2017-03-02T06:10:58.376Z,99.26
2017-03-02T06:11:58.736Z,98.79
2017-03-02T06:12:58.717Z,98.79
2017-03-02T06:13:58.695Z,98.79
2017-03-02T06:14:58.663Z,98.31
2017-03-02T06:15:58.651Z,97.83
2017-03-02T06:16:58.619Z,98.03
2017-03-02T06:17:58.592Z,98.31
2017-03-02T06:18:58.564Z,98.79
2017-03-02T06:19:58.547Z,97.55
2017-03-02T06:20:58.522Z,97.36
2017-03-02T06:21:58.115Z,96.6
2017-03-02T06:22:58.079Z,96.6
2017-03-02T06:23:58.117Z,97.74
2017-03-02T06:24:58.437Z,97.36
2017-03-02T06:25:58.448Z,97.08
2017-03-02T06:26:58.376Z,96.69
2017-03-02T06:27:58.396Z,96.22
2017-03-02T06:28:58.332Z,96.6
2017-03-02T06:29:58.405Z,96.5
2017-03-02T06:30:57.893Z,97.08
2017-03-02T06:31:58.368Z,96.31
2017-03-02T06:32:57.842Z,96.03
2017-03-02T06:33:58.336Z,95.84
2017-03-02T06:34:57.799Z,95.56
2017-03-02T06:35:57.841Z,95.56
2017-03-02T06:36:58.150Z,95.94
2017-03-02T06:37:58.169Z,95.98
2017-03-02T06:38:58.100Z,95.56
2017-03-02T06:39:58.157Z,95.65
2017-03-02T06:40:58.058Z,96.03
2017-03-02T06:41:57.714Z,95.84
2017-03-02T06:42:57.618Z,96.5
2017-03-02T06:43:58.008Z,95.46
2017-03-02T06:44:58.018Z,95.56
2017-03-02T06:45:58.029Z,95.46
2017-03-02T06:46:57.904Z,96.41
2017-03-02T06:47:57.944Z,96.12
2017-03-02T06:48:57.865Z,95.65
2017-03-02T06:49:57.554Z,95.75
2017-03-02T06:50:57.423Z,95.36
2017-03-02T06:51:57.803Z,95.27
2017-03-02T06:52:57.801Z,95.65
2017-03-02T06:53:57.762Z,94.98
2017-03-02T06:54:57.720Z,94.98
2017-03-02T06:55:57.690Z,95.36
2017-03-02T06:56:57.730Z,95.65
2017-03-02T06:57:57.262Z,95.56
2017-03-02T06:58:57.678Z,95.46
2017-03-02T06:59:57.233Z,95.65
2017-03-02T07:00:57.187Z,95.94
2017-03-02T07:01:57.557Z,95.84
2017-03-02T07:02:57.536Z,95.65
2017-03-02T07:03:57.515Z,95.36
2017-03-02T07:04:57.592Z,95.46
2017-03-02T07:05:57.488Z,95.46
2017-03-02T07:06:57.507Z,95.36
2017-03-02T07:07:57.424Z,95.46
2017-03-02T07:08:57.403Z,95.46
2017-03-02T07:09:57.364Z,95.36
2017-03-02T07:10:57.421Z,95.36
2017-03-02T07:11:57.322Z,95.36
2017-03-02T07:12:57.305Z,95.84
2017-03-02T07:13:57.298Z,95.46
2017-03-02T07:14:57.280Z,95.65
2017-03-02T07:15:57.230Z,95.17
2017-03-02T07:16:56.839Z,95.36
2017-03-02T07:17:57.189Z,95.65
2017-03-02T07:18:56.778Z,95.84
2017-03-02T07:19:57.140Z,95.75
2017-03-02T07:20:57.141Z,95.17
2017-03-02T07:21:57.095Z,94.79
2017-03-02T07:22:56.679Z,94.6
2017-03-02T07:23:56.661Z,94.22
2017-03-02T07:24:57.024Z,93.89
2017-03-02T07:25:56.602Z,94.46
2017-03-02T07:26:56.586Z,95.27
2017-03-02T07:27:56.950Z,94.98
2017-03-02T07:28:56.922Z,95.36
2017-03-02T07:29:56.902Z,95.36
2017-03-02T07:30:56.881Z,95.65
2017-03-02T07:31:56.851Z,95.36
2017-03-02T07:32:56.834Z,95.94
2017-03-02T07:33:56.816Z,95.36
2017-03-02T07:34:56.816Z,94.79
2017-03-02T07:35:56.399Z,95.36
2017-03-02T07:36:56.747Z,95.36
2017-03-02T07:37:56.736Z,95.08
2017-03-02T07:38:56.696Z,95.36
2017-03-02T07:39:56.685Z,95.17
2017-03-02T07:40:56.660Z,95.84
2017-03-02T07:41:56.237Z,95.65
2017-03-02T07:42:56.601Z,95.94
2017-03-02T07:43:56.194Z,95.75
2017-03-02T07:44:56.565Z,95.65
2017-03-02T07:45:56.144Z,94.98
2017-03-02T07:46:56.122Z,95.08
2017-03-02T07:47:56.112Z,94.98
2017-03-02T07:48:56.473Z,94.98
2017-03-02T07:49:56.051Z,95.46
2017-03-02T07:50:56.021Z,95.75
2017-03-02T07:51:56.019Z,96.31
2017-03-02T07:52:55.989Z,96.5
2017-03-02T07:53:56.350Z,97.27
2017-03-02T07:54:56.329Z,96.98
2017-03-02T07:55:55.928Z,97.45
2017-03-02T07:56:55.886Z,97.64
2017-03-02T07:57:56.254Z,98.12
2017-03-02T07:58:56.224Z,99.07
2017-03-02T07:59:56.204Z,99.36
2017-03-02T08:00:56.187Z,99.99
2017-03-02T08:01:55.793Z,99.99
2017-03-02T08:02:56.164Z,99.99
2017-03-02T08:03:56.123Z,99.99
2017-03-02T08:04:55.703Z,99.99
2017-03-02T08:05:55.671Z,99.99
2017-03-02T08:06:56.052Z,99.99
2017-03-02T08:07:56.019Z,99.99
2017-03-02T08:08:56.060Z,99.99
2017-03-02T08:09:55.582Z,99.99
2017-03-02T08:10:55.569Z,99.99
2017-03-02T08:11:55.534Z,99.99
2017-03-02T08:12:55.516Z,99.99
2017-03-02T08:13:55.888Z,99.99
2017-03-02T08:14:55.856Z,99.99
2017-03-02T08:15:55.836Z,99.99
2017-03-02T08:16:55.809Z,99.99
2017-03-02T08:17:55.785Z,99.99
2017-03-02T08:18:55.371Z,99.99
2017-03-02T08:19:55.737Z,99.99
2017-03-02T08:20:55.735Z,99.99
2017-03-02T08:21:55.302Z,99.99
2017-03-02T08:22:55.671Z,99.99
2017-03-02T08:23:55.654Z,99.99
2017-03-02T08:24:55.230Z,99.99
2017-03-02T08:25:55.203Z,99.99
2017-03-02T08:26:55.579Z,99.99
2017-03-02T08:27:55.608Z,99.99
2017-03-02T08:28:55.129Z,99.99
2017-03-02T08:29:55.497Z,99.99
2017-03-02T08:30:55.469Z,99.99
2017-03-02T08:31:55.467Z,99.99
2017-03-02T08:32:55.427Z,99.99
2017-03-02T08:33:55.458Z,99.99
2017-03-02T08:34:55.375Z,99.99
2017-03-02T08:35:54.955Z,99.99
2017-03-02T08:36:55.326Z,99.99
2017-03-02T08:37:54.920Z,99.99
2017-03-02T08:38:54.894Z,99.99
2017-03-02T08:39:55.249Z,99.99
2017-03-02T08:40:55.236Z,99.99
2017-03-02T08:41:55.209Z,99.99
2017-03-02T08:42:55.182Z,99.99
2017-03-02T08:43:55.156Z,99.99
2017-03-02T08:44:55.131Z,99.99
2017-03-02T08:45:54.737Z,99.99
2017-03-02T08:46:55.101Z,99.99
2017-03-02T08:47:55.070Z,99.99
2017-03-02T08:48:55.029Z,99.99
2017-03-02T08:49:54.619Z,99.99
2017-03-02T08:50:54.990Z,99.99
2017-03-02T08:51:54.968Z,99.99
2017-03-02T08:52:54.561Z,99.99
2017-03-02T08:53:54.908Z,99.99
2017-03-02T08:54:54.887Z,99.99
2017-03-02T08:55:54.485Z,99.99
2017-03-02T08:56:54.458Z,99.99
2017-03-02T08:57:54.425Z,99.99
2017-03-02T08:58:54.804Z,99.99
2017-03-02T08:59:54.783Z,99.99
2017-03-02T09:00:54.351Z,99.99
2017-03-02T09:01:54.722Z,99.99
2017-03-02T09:02:54.702Z,99.99
2017-03-02T09:03:54.671Z,99.99
2017-03-02T09:04:54.651Z,99.99
2017-03-02T09:05:54.621Z,99.99
2017-03-02T09:06:54.600Z,99.99
2017-03-02T09:07:54.579Z,99.99
2017-03-02T09:08:54.552Z,99.99
2017-03-02T09:09:54.539Z,99.99
2017-03-02T09:10:54.509Z,99.99
2017-03-02T09:11:54.090Z,99.99
2017-03-02T09:12:54.449Z,99.99
2017-03-02T09:13:54.436Z,99.99
2017-03-02T09:14:54.402Z,99.99
2017-03-02T09:15:54.377Z,99.99
2017-03-02T09:16:54.366Z,99.99
2017-03-02T09:17:54.331Z,99.99
2017-03-02T09:18:54.315Z,99.99
2017-03-02T09:19:54.273Z,99.99
2017-03-02T09:20:54.262Z,99.99
2017-03-02T09:21:54.228Z,99.99
2017-03-02T09:22:54.215Z,99.99
2017-03-02T09:23:54.201Z,99.99
2017-03-02T09:24:54.164Z,99.99
2017-03-02T09:25:54.150Z,99.99
2017-03-02T09:26:54.120Z,99.99
2017-03-02T09:27:54.104Z,99.99
2017-03-02T09:28:54.069Z,99.99
2017-03-02T09:29:54.046Z,99.99
2017-03-02T09:30:54.018Z,99.99
2017-03-02T09:31:53.991Z,99.99
2017-03-02T09:32:53.577Z,99.99
2017-03-02T09:33:53.560Z,99.99
2017-03-02T09:34:53.917Z,99.99
2017-03-02T09:35:53.905Z,99.99
2017-03-02T09:36:53.496Z,99.99
2017-03-02T09:37:53.456Z,99.99
2017-03-02T09:38:53.832Z,99.99
2017-03-02T09:39:53.809Z,99.99
2017-03-02T09:40:53.767Z,99.99
2017-03-02T09:41:53.352Z,99.99
2017-03-02T09:42:53.734Z,99.99
2017-03-02T09:43:53.710Z,99.99
2017-03-02T09:44:53.670Z,99.99
2017-03-02T09:45:53.660Z,99.99
2017-03-02T09:46:53.636Z,99.99
2017-03-02T09:47:53.611Z,99.99
2017-03-02T09:48:53.192Z,99.99
2017-03-02T09:49:53.572Z,99.99
2017-03-02T09:50:53.538Z,99.99
2017-03-02T09:51:53.117Z,99.99
2017-03-02T09:52:53.111Z,99.99
2017-03-02T09:53:53.077Z,99.99
2017-03-02T09:54:53.445Z,99.99
2017-03-02T09:55:53.427Z,99.99
2017-03-02T09:56:53.397Z,99.99
2017-03-02T09:57:53.363Z,99.99
2017-03-02T09:58:52.965Z,99.99
2017-03-02T09:59:53.343Z,99.99
2017-03-02T10:00:52.913Z,99.99
2017-03-02T10:01:53.291Z,99.99
2017-03-02T10:02:53.261Z,99.99
2017-03-02T10:03:52.832Z,99.99
2017-03-02T10:04:52.811Z,99.99
2017-03-02T10:05:52.792Z,99.99
2017-03-02T10:06:53.163Z,99.99
2017-03-02T10:07:52.744Z,99.99
2017-03-02T10:08:53.107Z,99.99
2017-03-02T10:09:52.686Z,99.99
2017-03-02T10:10:53.062Z,99.99
2017-03-02T10:11:53.026Z,99.99
2017-03-02T10:12:52.612Z,99.99
2017-03-02T10:13:52.986Z,99.99
2017-03-02T10:14:52.566Z,99.99
2017-03-02T10:15:52.546Z,99.99
2017-03-02T10:16:52.554Z,99.99
2017-03-02T10:17:52.895Z,99.99
2017-03-02T10:18:52.869Z,99.99
2017-03-02T10:19:52.871Z,99.99
2017-03-02T10:20:52.812Z,99.99
2017-03-02T10:21:52.412Z,99.99
2017-03-02T10:22:52.761Z,99.99
2017-03-02T10:23:52.360Z,99.99
2017-03-02T10:24:52.324Z,99.99
2017-03-02T10:25:52.300Z,99.99
2017-03-02T10:26:52.669Z,99.99
2017-03-02T10:27:52.649Z,99.99
2017-03-02T10:28:52.237Z,99.99
2017-03-02T10:29:52.219Z,99.99
2017-03-02T10:30:52.578Z,99.99
2017-03-02T10:31:52.556Z,99.99
2017-03-02T10:32:52.524Z,99.99
2017-03-02T10:33:52.507Z,99.99
2017-03-02T10:34:52.496Z,99.99
2017-03-02T10:35:52.444Z,99.99
2017-03-02T10:36:52.045Z,99.99
2017-03-02T10:37:52.409Z,99.99
2017-03-02T10:38:52.385Z,99.99
2017-03-02T10:39:52.355Z,99.99
2017-03-02T10:40:52.342Z,99.99
2017-03-02T10:41:52.321Z,99.99
2017-03-02T10:42:52.303Z,99.99
2017-03-02T10:43:52.272Z,99.99
2017-03-02T10:44:51.840Z,99.99
2017-03-02T10:45:52.209Z,99.99
2017-03-02T10:46:51.798Z,99.99
2017-03-02T10:47:52.179Z,99.99
2017-03-02T10:48:52.149Z,99.99
2017-03-02T10:49:52.127Z,99.99
2017-03-02T10:50:52.101Z,99.99
2017-03-02T10:51:52.067Z,99.99
2017-03-02T10:52:52.049Z,99.99
2017-03-02T10:53:52.024Z,99.99
2017-03-02T10:54:51.998Z,99.99
2017-03-02T10:55:51.592Z,99.99
2017-03-02T10:56:51.945Z,99.99
2017-03-02T10:57:51.545Z,99.99
2017-03-02T10:58:51.903Z,99.99
2017-03-02T10:59:51.891Z,99.99
2017-03-02T11:00:51.862Z,99.99
2017-03-02T11:01:51.462Z,99.99
2017-03-02T11:02:51.811Z,99.99
2017-03-02T11:03:51.791Z,99.99
2017-03-02T11:04:51.770Z,99.99
2017-03-02T11:05:51.738Z,99.99
2017-03-02T11:06:51.721Z,99.99
2017-03-02T11:07:51.689Z,99.99
2017-03-02T11:08:51.288Z,99.99
2017-03-02T11:09:51.648Z,99.99
2017-03-02T11:10:51.627Z,99.99
2017-03-02T11:11:51.606Z,99.99
2017-03-02T11:12:51.206Z,99.99
2017-03-02T11:13:51.556Z,99.99
2017-03-02T11:14:51.545Z,99.99
2017-03-02T11:15:51.136Z,99.99
2017-03-02T11:16:51.105Z,99.99
2017-03-02T11:17:51.455Z,99.99
2017-03-02T11:18:51.461Z,99.99
2017-03-02T11:19:51.044Z,99.99
2017-03-02T11:20:51.387Z,99.99
2017-03-02T11:21:51.372Z,99.99
2017-03-02T11:22:51.344Z,99.99
2017-03-02T11:23:50.950Z,99.99
2017-03-02T11:24:50.911Z,99.99
2017-03-02T11:25:50.896Z,99.99
2017-03-02T11:26:50.864Z,99.99
2017-03-02T11:27:51.230Z,99.99
2017-03-02T11:28:50.817Z,99.99
2017-03-02T11:29:51.186Z,99.99
2017-03-02T11:30:51.172Z,99.99
2017-03-02T11:31:51.143Z,99.99
2017-03-02T11:32:50.733Z,99.99
2017-03-02T11:33:51.096Z,99.99
2017-03-02T11:34:51.065Z,99.99
2017-03-02T11:35:51.045Z,99.99
2017-03-02T11:36:50.639Z,99.99
2017-03-02T11:37:50.607Z,99.99
2017-03-02T11:38:50.975Z,99.99
2017-03-02T11:39:50.952Z,99.99
2017-03-02T11:40:50.545Z,99.99
2017-03-02T11:41:50.903Z,99.99
2017-03-02T11:42:50.901Z,99.99
2017-03-02T11:43:50.476Z,99.99
2017-03-02T11:44:50.850Z,99.99
2017-03-02T11:45:50.429Z,99.99
2017-03-02T11:46:50.810Z,99.99
2017-03-02T11:47:50.780Z,99.99
2017-03-02T11:48:50.758Z,99.99
2017-03-02T11:49:50.739Z,99.99
2017-03-02T11:50:50.708Z,99.99
2017-03-02T11:51:50.698Z,99.99
2017-03-02T11:52:50.700Z,99.99
2017-03-02T11:53:50.637Z,99.99
2017-03-02T11:54:50.275Z,99.99
2017-03-02T11:55:50.583Z,99.99
2017-03-02T11:56:50.245Z,99.99
2017-03-02T11:57:50.538Z,99.99
2017-03-02T11:58:50.632Z,99.99
2017-03-02T11:59:50.515Z,99.99
2017-03-02T12:00:50.581Z,99.99
2017-03-02T12:01:50.062Z,99.99
2017-03-02T12:02:50.584Z,99.99
2017-03-02T12:03:50.410Z,99.99
2017-03-02T12:04:50.396Z,99.99
2017-03-02T12:05:50.365Z,99.99
2017-03-02T12:06:49.970Z,99.99
2017-03-02T12:07:49.933Z,99.99
2017-03-02T12:08:49.939Z,99.99
2017-03-02T12:09:49.906Z,99.99
2017-03-02T12:10:49.897Z,99.99
2017-03-02T12:11:49.845Z,99.99
2017-03-02T12:12:50.286Z,99.99
2017-03-02T12:13:50.237Z,99.99
2017-03-02T12:14:50.175Z,99.99
2017-03-02T12:15:50.134Z,99.99
2017-03-02T12:16:50.184Z,99.99
2017-03-02T12:17:50.103Z,99.99
2017-03-02T12:18:50.143Z,99.99
2017-03-02T12:19:50.051Z,99.99
2017-03-02T12:20:50.126Z,99.99
2017-03-02T12:21:50.016Z,99.99
2017-03-02T12:22:50.103Z,99.99
2017-03-02T12:23:50.010Z,99.99
2017-03-02T12:24:49.946Z,99.99
2017-03-02T12:25:49.919Z,99.99
2017-03-02T12:26:49.899Z,99.99
2017-03-02T12:27:49.888Z,99.99
2017-03-02T12:28:49.857Z,99.99
2017-03-02T12:29:49.937Z,99.99
2017-03-02T12:30:49.414Z,99.99
2017-03-02T12:31:49.891Z,99.99
2017-03-02T12:32:49.366Z,99.99
2017-03-02T12:33:49.735Z,99.99
2017-03-02T12:34:49.725Z,99.99
2017-03-02T12:35:49.751Z,99.99
2017-03-02T12:36:49.671Z,99.99
2017-03-02T12:37:49.264Z,99.99
2017-03-02T12:38:49.228Z,99.99
2017-03-02T12:39:49.680Z,99.99
2017-03-02T12:40:49.581Z,99.99
2017-03-02T12:41:49.560Z,99.99
2017-03-02T12:42:49.542Z,99.99
2017-03-02T12:43:49.610Z,99.99
2017-03-02T12:44:49.495Z,99.99
2017-03-02T12:45:49.079Z,99.99
2017-03-02T12:46:49.447Z,99.99
2017-03-02T12:47:49.035Z,99.99
2017-03-02T12:48:49.018Z,99.99
2017-03-02T12:49:49.378Z,99.99
2017-03-02T12:50:49.365Z,99.99
2017-03-02T12:51:49.334Z,99.99